Lauderdale, MS (39335)

6:42 PM CDT on July 22, 2014 (GMT -0500)
Key (KMEI) Elev 308 ft | 32.33 °N, 88.75 °W | Change Station

Current weather conditions updated 6 minutes ago

Mostly Cloudy
Mostly Cloudy
73 °F
Feels Like 73 °F
N
16
Wind Variable Wind from South

Tomorrow is forecast to be Warmer than today. Thunderstorms developing in the afternoon.

Today
High -- | Low -- °F
--% Chance of Precip.
Yesterday
High -- | Low -- °F
Precip. -- in
6:02 AM 7:59 PM
Waning Crescent, 14% visible
Pressure 30.07 in
Visibility 10.0 miles
Clouds Mostly Cloudy 1300 ft
Mostly Cloudy 1900 ft
Overcast 3500 ft
Dew Point 70 °F
Humidity 88%
Rainfall 0.02 in
Snow Depth Not available.
UV 0 out of 12
Pollen 3.40 out of 12
Air Quality Not available.
Flu Activity Not available.
SPECI KMEI 222336Z 19014KT 10SM -RA BKN013 BKN019 OVC035 23/21 A3007 RMK AO2 WSHFT 2322 P0000

More Conditions Fewer Conditions

Pressure 30.07 in
Visibility 10.0 miles
Clouds Mostly Cloudy 1300 ft
Mostly Cloudy 1900 ft
Overcast 3500 ft
Dew Point 70 °F
Humidity 88%
Rainfall 0.02 in
Snow Depth Not available.
UV 0 out of 12
Pollen 3.40 out of 12
Air Quality Not available.
Flu Activity Not available.
SPECI KMEI 222336Z 19014KT 10SM -RA BKN013 BKN019 OVC035 23/21 A3007 RMK AO2 WSHFT 2322 P0000

More Conditions Fewer Conditions

10-Day Weather Forecast

Almanac

Astronomy

Jul. 22, 2014 Rise Set
Actual Time 6:02 AM CDT 7:59 PM CDT
Civil Twilight 5:35 AM CDT 8:26 PM CDT
Nautical Twilight 5:02 AM CDT 8:59 PM CDT
Astronomical Twilight 4:26 AM CDT 9:35 PM CDT
Moon 2:33 AM CDT 4:38 PM CDT
Length of Visible Light 14h 51m
Length of Day
13h 56m
Tomorrow will be 1m 14s shorter.
Waning Crescent, 14% of the Moon is Illuminated
Today
Waning Crescent
Jul 26
New
Aug 3
First Quarter
Aug 10
Full
Aug 17
Last Quarter

Today's Extremes

State Highs State Lows

Community

WunderPhotos

Upload Photos

1,736,391 photos uploaded!

Nearby

Snow Depth

Station Depth Elevation
No new snow has been reported.

Earthquake Activity

City Distance Mag. Time & Date
No recent earthquake activity has been reported nearby.
Minimum magnitude displayed is 2.5.

Coastal Water Temperatures

Place Temperature
No Stations Reporting

Nearby Weather Stations

Station Location Temp. Heat Index Dew Point Humidity Wind Precip. Elev Updated Type
Downtown Pinesprings, 9.5 miles N of Mer, Meridian, MS 81.1 °F 80 °F 42 °F 25% North  at  0.0 mph 0.00 in / hr 412 ft 6:42 PM CDT Rapid Fire
RAWS LAUDERDALE MS, Toomsuba, MS 75 °F 74 °F 73 °F 92% SSE  at  1 mph 0.00 in / hr 221 ft 5:13 PM CDT MADIS

Show More Stations Show Fewer Stations